<?xml version="1.0" encoding="UTF-8" standalone="no" ?>
<gpx xmlns="http://www.topografix.com/GPX/1/1" xmlns:xsi="http://www.w3.org/2001/XMLSchema-instance" xsi:schemaLocation="http://www.topografix.com/GPX/1/1 http://www.topografix.com/GPX/1/1/gpx.xsd" version="1.1" creator="VisuGPX - https://www.visugpx.com">
  <metadata>
    <name>Mines de Rancié, 1300m, depuis Lercoul.</name>
  </metadata>
  <trk>
    <name><![CDATA[Mines de Rancié, 1300m, depuis Lercoul.]]></name>
    <trkseg>
      <trkpt lat="42.7707" lon="1.54686">
        <ele>1116</ele>
        <time>2022-08-26T13:26:20+02:00</time>
      </trkpt>
      <trkpt lat="42.77111" lon="1.54739">
        <ele>1124</ele>
      </trkpt>
      <trkpt lat="42.77085" lon="1.54602">
        <ele>1134</ele>
      </trkpt>
      <trkpt lat="42.77037" lon="1.54477">
        <ele>1145</ele>
      </trkpt>
      <trkpt lat="42.77091" lon="1.5446">
        <ele>1161</ele>
      </trkpt>
      <trkpt lat="42.771" lon="1.54426">
        <ele>1168</ele>
        <time>2022-08-26T13:26:45+02:00</time>
      </trkpt>
      <trkpt lat="42.77073" lon="1.54334">
        <ele>1191</ele>
        <time>2022-08-26T13:27:08+02:00</time>
      </trkpt>
      <trkpt lat="42.77001" lon="1.54309">
        <ele>1198</ele>
        <time>2022-08-26T13:27:33+02:00</time>
      </trkpt>
      <trkpt lat="42.77008" lon="1.54256">
        <ele>1214</ele>
      </trkpt>
      <trkpt lat="42.77037" lon="1.54232">
        <ele>1221</ele>
      </trkpt>
      <trkpt lat="42.77093" lon="1.54176">
        <ele>1240</ele>
        <time>2022-08-26T13:28:02+02:00</time>
      </trkpt>
      <trkpt lat="42.77187" lon="1.54177">
        <ele>1254</ele>
        <time>2022-08-26T13:28:46+02:00</time>
      </trkpt>
      <trkpt lat="42.77283" lon="1.54161">
        <ele>1277</ele>
        <time>2022-08-26T13:30:28+02:00</time>
      </trkpt>
      <trkpt lat="42.77293" lon="1.54146">
        <ele>1280</ele>
        <time>2022-08-26T13:30:50+02:00</time>
      </trkpt>
      <trkpt lat="42.77278" lon="1.54128">
        <ele>1284</ele>
        <time>2022-08-26T13:31:20+02:00</time>
      </trkpt>
      <trkpt lat="42.77257" lon="1.54113">
        <ele>1288</ele>
        <time>2022-08-26T13:31:51+02:00</time>
      </trkpt>
      <trkpt lat="42.77236" lon="1.54103">
        <ele>1289</ele>
        <time>2022-08-26T13:32:15+02:00</time>
      </trkpt>
      <trkpt lat="42.77215" lon="1.5409">
        <ele>1292</ele>
        <time>2022-08-26T13:32:40+02:00</time>
      </trkpt>
      <trkpt lat="42.77196" lon="1.54071">
        <ele>1294</ele>
        <time>2022-08-26T13:33:51+02:00</time>
      </trkpt>
      <trkpt lat="42.77183" lon="1.54044">
        <ele>1296</ele>
        <time>2022-08-26T13:34:11+02:00</time>
      </trkpt>
      <trkpt lat="42.77175" lon="1.54013">
        <ele>1297</ele>
        <time>2022-08-26T13:34:36+02:00</time>
      </trkpt>
      <trkpt lat="42.77168" lon="1.53984">
        <ele>1299</ele>
        <time>2022-08-26T13:35:11+02:00</time>
      </trkpt>
      <trkpt lat="42.77172" lon="1.5395">
        <ele>1307</ele>
        <time>2022-08-26T13:35:29+02:00</time>
      </trkpt>
      <trkpt lat="42.77172" lon="1.53917">
        <ele>1316</ele>
        <time>2022-08-26T13:36:07+02:00</time>
      </trkpt>
      <trkpt lat="42.77171" lon="1.53885">
        <ele>1322</ele>
        <time>2022-08-26T13:36:34+02:00</time>
      </trkpt>
      <trkpt lat="42.77157" lon="1.53854">
        <ele>1326</ele>
        <time>2022-08-26T13:36:58+02:00</time>
      </trkpt>
      <trkpt lat="42.77143" lon="1.53828">
        <ele>1330</ele>
        <time>2022-08-26T13:37:21+02:00</time>
      </trkpt>
      <trkpt lat="42.77127" lon="1.53804">
        <ele>1332</ele>
        <time>2022-08-26T13:37:41+02:00</time>
      </trkpt>
      <trkpt lat="42.77115" lon="1.53776">
        <ele>1329</ele>
        <time>2022-08-26T13:38:09+02:00</time>
      </trkpt>
      <trkpt lat="42.77097" lon="1.53752">
        <ele>1328</ele>
        <time>2022-08-26T13:38:29+02:00</time>
      </trkpt>
      <trkpt lat="42.77078" lon="1.53734">
        <ele>1329</ele>
        <time>2022-08-26T13:38:48+02:00</time>
      </trkpt>
      <trkpt lat="42.77057" lon="1.53715">
        <ele>1331</ele>
        <time>2022-08-26T13:39:15+02:00</time>
      </trkpt>
      <trkpt lat="42.77039" lon="1.53695">
        <ele>1338</ele>
        <time>2022-08-26T13:39:34+02:00</time>
      </trkpt>
      <trkpt lat="42.77025" lon="1.53667">
        <ele>1340</ele>
        <time>2022-08-26T13:40:02+02:00</time>
      </trkpt>
      <trkpt lat="42.77019" lon="1.53637">
        <ele>1335</ele>
        <time>2022-08-26T13:40:23+02:00</time>
      </trkpt>
      <trkpt lat="42.77014" lon="1.53605">
        <ele>1336</ele>
        <time>2022-08-26T13:40:46+02:00</time>
      </trkpt>
      <trkpt lat="42.77011" lon="1.53573">
        <ele>1338</ele>
        <time>2022-08-26T13:41:18+02:00</time>
      </trkpt>
      <trkpt lat="42.77004" lon="1.5354">
        <ele>1338</ele>
        <time>2022-08-26T13:41:45+02:00</time>
      </trkpt>
      <trkpt lat="42.76988" lon="1.53517">
        <ele>1339</ele>
        <time>2022-08-26T13:42:27+02:00</time>
      </trkpt>
      <trkpt lat="42.76972" lon="1.53495">
        <ele>1337</ele>
        <time>2022-08-26T13:42:48+02:00</time>
      </trkpt>
      <trkpt lat="42.76955" lon="1.53474">
        <ele>1335</ele>
        <time>2022-08-26T13:43:16+02:00</time>
      </trkpt>
      <trkpt lat="42.76941" lon="1.53448">
        <ele>1332</ele>
        <time>2022-08-26T13:43:32+02:00</time>
      </trkpt>
      <trkpt lat="42.76922" lon="1.53431">
        <ele>1335</ele>
        <time>2022-08-26T13:46:02+02:00</time>
      </trkpt>
      <trkpt lat="42.76903" lon="1.53409">
        <ele>1335</ele>
        <time>2022-08-26T13:46:20+02:00</time>
      </trkpt>
      <trkpt lat="42.76895" lon="1.53378">
        <ele>1333</ele>
        <time>2022-08-26T13:46:50+02:00</time>
      </trkpt>
      <trkpt lat="42.76895" lon="1.53346">
        <ele>1331</ele>
        <time>2022-08-26T13:47:05+02:00</time>
      </trkpt>
      <trkpt lat="42.76898" lon="1.53314">
        <ele>1329</ele>
        <time>2022-08-26T13:47:28+02:00</time>
      </trkpt>
      <trkpt lat="42.76901" lon="1.5328">
        <ele>1327</ele>
        <time>2022-08-26T13:47:49+02:00</time>
      </trkpt>
      <trkpt lat="42.76907" lon="1.53248">
        <ele>1324</ele>
        <time>2022-08-26T13:48:08+02:00</time>
      </trkpt>
      <trkpt lat="42.7691" lon="1.5321">
        <ele>1325</ele>
        <time>2022-08-26T13:48:51+02:00</time>
      </trkpt>
      <trkpt lat="42.76909" lon="1.53175">
        <ele>1325</ele>
        <time>2022-08-26T13:49:11+02:00</time>
      </trkpt>
      <trkpt lat="42.76898" lon="1.53145">
        <ele>1326</ele>
        <time>2022-08-26T13:49:29+02:00</time>
      </trkpt>
      <trkpt lat="42.76899" lon="1.53112">
        <ele>1323</ele>
        <time>2022-08-26T13:50:40+02:00</time>
      </trkpt>
      <trkpt lat="42.76899" lon="1.5308">
        <ele>1321</ele>
        <time>2022-08-26T13:50:57+02:00</time>
      </trkpt>
      <trkpt lat="42.76903" lon="1.53049">
        <ele>1318</ele>
        <time>2022-08-26T13:51:17+02:00</time>
      </trkpt>
      <trkpt lat="42.76907" lon="1.53017">
        <ele>1315</ele>
        <time>2022-08-26T13:51:40+02:00</time>
      </trkpt>
      <trkpt lat="42.76892" lon="1.5299">
        <ele>1317</ele>
        <time>2022-08-26T13:52:04+02:00</time>
      </trkpt>
      <trkpt lat="42.76874" lon="1.52972">
        <ele>1318</ele>
        <time>2022-08-26T13:52:19+02:00</time>
      </trkpt>
      <trkpt lat="42.76855" lon="1.52957">
        <ele>1318</ele>
        <time>2022-08-26T13:52:38+02:00</time>
      </trkpt>
      <trkpt lat="42.76832" lon="1.52947">
        <ele>1320</ele>
        <time>2022-08-26T13:53:02+02:00</time>
      </trkpt>
      <trkpt lat="42.76816" lon="1.52925">
        <ele>1320</ele>
        <time>2022-08-26T13:53:24+02:00</time>
      </trkpt>
      <trkpt lat="42.76799" lon="1.52905">
        <ele>1321</ele>
        <time>2022-08-26T13:54:03+02:00</time>
      </trkpt>
      <trkpt lat="42.76779" lon="1.52883">
        <ele>1322</ele>
        <time>2022-08-26T13:54:24+02:00</time>
      </trkpt>
      <trkpt lat="42.76762" lon="1.52859">
        <ele>1321</ele>
        <time>2022-08-26T13:54:44+02:00</time>
      </trkpt>
      <trkpt lat="42.76743" lon="1.52841">
        <ele>1320</ele>
        <time>2022-08-26T13:55:07+02:00</time>
      </trkpt>
      <trkpt lat="42.76725" lon="1.5282">
        <ele>1316</ele>
        <time>2022-08-26T13:55:46+02:00</time>
      </trkpt>
      <trkpt lat="42.76712" lon="1.52793">
        <ele>1309</ele>
        <time>2022-08-26T13:56:13+02:00</time>
      </trkpt>
      <trkpt lat="42.76702" lon="1.52765">
        <ele>1303</ele>
        <time>2022-08-26T13:56:38+02:00</time>
      </trkpt>
      <trkpt lat="42.7668" lon="1.52751">
        <ele>1302</ele>
        <time>2022-08-26T13:56:58+02:00</time>
      </trkpt>
      <trkpt lat="42.76656" lon="1.52739">
        <ele>1303</ele>
        <time>2022-08-26T13:57:38+02:00</time>
      </trkpt>
      <trkpt lat="42.76678" lon="1.52746">
        <ele>1301</ele>
        <time>2022-08-26T13:58:11+02:00</time>
      </trkpt>
      <trkpt lat="42.76671" lon="1.52717">
        <ele>1294</ele>
        <time>2022-08-26T13:59:23+02:00</time>
      </trkpt>
      <trkpt lat="42.76654" lon="1.52691">
        <ele>1291</ele>
        <time>2022-08-26T13:59:39+02:00</time>
      </trkpt>
      <trkpt lat="42.76634" lon="1.52669">
        <ele>1291</ele>
        <time>2022-08-26T14:00:01+02:00</time>
      </trkpt>
      <trkpt lat="42.76614" lon="1.52654">
        <ele>1291</ele>
        <time>2022-08-26T14:01:38+02:00</time>
      </trkpt>
      <trkpt lat="42.76592" lon="1.52646">
        <ele>1294</ele>
        <time>2022-08-26T14:02:21+02:00</time>
      </trkpt>
      <trkpt lat="42.76571" lon="1.52634">
        <ele>1295</ele>
        <time>2022-08-26T14:02:44+02:00</time>
      </trkpt>
      <trkpt lat="42.76548" lon="1.52625">
        <ele>1297</ele>
        <time>2022-08-26T14:03:13+02:00</time>
      </trkpt>
      <trkpt lat="42.76524" lon="1.52618">
        <ele>1300</ele>
        <time>2022-08-26T14:03:34+02:00</time>
      </trkpt>
      <trkpt lat="42.76501" lon="1.52604">
        <ele>1300</ele>
        <time>2022-08-26T14:06:35+02:00</time>
      </trkpt>
      <trkpt lat="42.76478" lon="1.52595">
        <ele>1301</ele>
        <time>2022-08-26T14:07:25+02:00</time>
      </trkpt>
      <trkpt lat="42.76504" lon="1.52605">
        <ele>1299</ele>
        <time>2022-08-26T14:08:28+02:00</time>
      </trkpt>
      <trkpt lat="42.76527" lon="1.52615">
        <ele>1298</ele>
        <time>2022-08-26T14:08:52+02:00</time>
      </trkpt>
      <trkpt lat="42.76549" lon="1.52624">
        <ele>1296</ele>
        <time>2022-08-26T14:09:13+02:00</time>
      </trkpt>
      <trkpt lat="42.7657" lon="1.52637">
        <ele>1296</ele>
        <time>2022-08-26T14:09:34+02:00</time>
      </trkpt>
      <trkpt lat="42.76593" lon="1.52648">
        <ele>1295</ele>
        <time>2022-08-26T14:09:59+02:00</time>
      </trkpt>
      <trkpt lat="42.76614" lon="1.52656">
        <ele>1291</ele>
        <time>2022-08-26T14:10:18+02:00</time>
      </trkpt>
      <trkpt lat="42.76602" lon="1.5263">
        <ele>1286</ele>
        <time>2022-08-26T14:11:04+02:00</time>
      </trkpt>
      <trkpt lat="42.76583" lon="1.52609">
        <ele>1283</ele>
        <time>2022-08-26T14:11:33+02:00</time>
      </trkpt>
      <trkpt lat="42.76565" lon="1.5259">
        <ele>1278</ele>
        <time>2022-08-26T14:11:59+02:00</time>
      </trkpt>
      <trkpt lat="42.76552" lon="1.52563">
        <ele>1267</ele>
        <time>2022-08-26T14:12:23+02:00</time>
      </trkpt>
      <trkpt lat="42.76529" lon="1.5255">
        <ele>1263</ele>
        <time>2022-08-26T14:12:51+02:00</time>
      </trkpt>
      <trkpt lat="42.76508" lon="1.52541">
        <ele>1261</ele>
        <time>2022-08-26T14:13:17+02:00</time>
      </trkpt>
      <trkpt lat="42.76486" lon="1.52529">
        <ele>1260</ele>
        <time>2022-08-26T14:13:39+02:00</time>
      </trkpt>
      <trkpt lat="42.76509" lon="1.52539">
        <ele>1260</ele>
        <time>2022-08-26T14:16:41+02:00</time>
      </trkpt>
      <trkpt lat="42.76531" lon="1.52549">
        <ele>1262</ele>
        <time>2022-08-26T14:17:09+02:00</time>
      </trkpt>
      <trkpt lat="42.7655" lon="1.52568">
        <ele>1270</ele>
        <time>2022-08-26T14:17:40+02:00</time>
      </trkpt>
      <trkpt lat="42.76566" lon="1.5259">
        <ele>1278</ele>
        <time>2022-08-26T14:18:14+02:00</time>
      </trkpt>
      <trkpt lat="42.76582" lon="1.52611">
        <ele>1284</ele>
        <time>2022-08-26T14:18:39+02:00</time>
      </trkpt>
      <trkpt lat="42.76599" lon="1.52634">
        <ele>1288</ele>
        <time>2022-08-26T14:19:13+02:00</time>
      </trkpt>
      <trkpt lat="42.76618" lon="1.52656">
        <ele>1290</ele>
        <time>2022-08-26T14:19:58+02:00</time>
      </trkpt>
      <trkpt lat="42.76634" lon="1.52678">
        <ele>1293</ele>
        <time>2022-08-26T14:20:23+02:00</time>
      </trkpt>
      <trkpt lat="42.76655" lon="1.52693">
        <ele>1291</ele>
        <time>2022-08-26T14:21:12+02:00</time>
      </trkpt>
      <trkpt lat="42.76666" lon="1.52722">
        <ele>1295</ele>
        <time>2022-08-26T14:22:19+02:00</time>
      </trkpt>
      <trkpt lat="42.76683" lon="1.52744">
        <ele>1300</ele>
        <time>2022-08-26T14:22:47+02:00</time>
      </trkpt>
      <trkpt lat="42.76695" lon="1.52771">
        <ele>1305</ele>
        <time>2022-08-26T14:23:48+02:00</time>
      </trkpt>
      <trkpt lat="42.7671" lon="1.52795">
        <ele>1310</ele>
        <time>2022-08-26T14:24:15+02:00</time>
      </trkpt>
      <trkpt lat="42.76722" lon="1.52824">
        <ele>1317</ele>
        <time>2022-08-26T14:24:42+02:00</time>
      </trkpt>
      <trkpt lat="42.76743" lon="1.52841">
        <ele>1320</ele>
        <time>2022-08-26T14:25:08+02:00</time>
      </trkpt>
      <trkpt lat="42.76761" lon="1.52862">
        <ele>1322</ele>
        <time>2022-08-26T14:25:50+02:00</time>
      </trkpt>
      <trkpt lat="42.76778" lon="1.52885">
        <ele>1323</ele>
        <time>2022-08-26T14:26:11+02:00</time>
      </trkpt>
      <trkpt lat="42.76796" lon="1.52906">
        <ele>1322</ele>
        <time>2022-08-26T14:26:41+02:00</time>
      </trkpt>
      <trkpt lat="42.76814" lon="1.52924">
        <ele>1320</ele>
        <time>2022-08-26T14:27:02+02:00</time>
      </trkpt>
      <trkpt lat="42.76833" lon="1.52944">
        <ele>1319</ele>
        <time>2022-08-26T14:27:25+02:00</time>
      </trkpt>
      <trkpt lat="42.76857" lon="1.52962">
        <ele>1319</ele>
        <time>2022-08-26T14:28:00+02:00</time>
      </trkpt>
      <trkpt lat="42.76879" lon="1.52978">
        <ele>1318</ele>
        <time>2022-08-26T14:28:17+02:00</time>
      </trkpt>
      <trkpt lat="42.76898" lon="1.52998">
        <ele>1316</ele>
        <time>2022-08-26T14:29:15+02:00</time>
      </trkpt>
      <trkpt lat="42.76899" lon="1.53029">
        <ele>1319</ele>
        <time>2022-08-26T14:29:43+02:00</time>
      </trkpt>
      <trkpt lat="42.76902" lon="1.5306">
        <ele>1319</ele>
        <time>2022-08-26T14:30:07+02:00</time>
      </trkpt>
      <trkpt lat="42.76898" lon="1.5309">
        <ele>1322</ele>
        <time>2022-08-26T14:30:33+02:00</time>
      </trkpt>
      <trkpt lat="42.76901" lon="1.53127">
        <ele>1324</ele>
        <time>2022-08-26T14:30:59+02:00</time>
      </trkpt>
      <trkpt lat="42.76899" lon="1.53158">
        <ele>1327</ele>
        <time>2022-08-26T14:31:17+02:00</time>
      </trkpt>
      <trkpt lat="42.76903" lon="1.53191">
        <ele>1329</ele>
        <time>2022-08-26T14:31:43+02:00</time>
      </trkpt>
      <trkpt lat="42.76904" lon="1.53227">
        <ele>1327</ele>
        <time>2022-08-26T14:32:11+02:00</time>
      </trkpt>
      <trkpt lat="42.769" lon="1.53259">
        <ele>1329</ele>
        <time>2022-08-26T14:32:34+02:00</time>
      </trkpt>
      <trkpt lat="42.76894" lon="1.53291">
        <ele>1332</ele>
        <time>2022-08-26T14:32:55+02:00</time>
      </trkpt>
      <trkpt lat="42.76894" lon="1.53323">
        <ele>1332</ele>
        <time>2022-08-26T14:33:15+02:00</time>
      </trkpt>
      <trkpt lat="42.76884" lon="1.53351">
        <ele>1338</ele>
        <time>2022-08-26T14:33:34+02:00</time>
      </trkpt>
      <trkpt lat="42.76897" lon="1.53381">
        <ele>1332</ele>
        <time>2022-08-26T14:34:00+02:00</time>
      </trkpt>
      <trkpt lat="42.76897" lon="1.53417">
        <ele>1340</ele>
        <time>2022-08-26T14:34:18+02:00</time>
      </trkpt>
      <trkpt lat="42.76916" lon="1.53439">
        <ele>1341</ele>
        <time>2022-08-26T14:34:40+02:00</time>
      </trkpt>
      <trkpt lat="42.76939" lon="1.53453">
        <ele>1334</ele>
        <time>2022-08-26T14:35:02+02:00</time>
      </trkpt>
      <trkpt lat="42.76957" lon="1.53473">
        <ele>1334</ele>
        <time>2022-08-26T14:35:20+02:00</time>
      </trkpt>
      <trkpt lat="42.76971" lon="1.53501">
        <ele>1340</ele>
        <time>2022-08-26T14:35:42+02:00</time>
      </trkpt>
      <trkpt lat="42.76993" lon="1.53519">
        <ele>1338</ele>
        <time>2022-08-26T14:36:54+02:00</time>
      </trkpt>
      <trkpt lat="42.77005" lon="1.53545">
        <ele>1339</ele>
        <time>2022-08-26T14:37:15+02:00</time>
      </trkpt>
      <trkpt lat="42.77008" lon="1.53575">
        <ele>1340</ele>
        <time>2022-08-26T14:37:43+02:00</time>
      </trkpt>
      <trkpt lat="42.77014" lon="1.53607">
        <ele>1336</ele>
        <time>2022-08-26T14:38:07+02:00</time>
      </trkpt>
      <trkpt lat="42.77016" lon="1.53639">
        <ele>1337</ele>
        <time>2022-08-26T14:38:25+02:00</time>
      </trkpt>
      <trkpt lat="42.77025" lon="1.53668">
        <ele>1340</ele>
        <time>2022-08-26T14:38:47+02:00</time>
      </trkpt>
      <trkpt lat="42.7704" lon="1.53694">
        <ele>1337</ele>
        <time>2022-08-26T14:39:09+02:00</time>
      </trkpt>
      <trkpt lat="42.7705" lon="1.53722">
        <ele>1338</ele>
        <time>2022-08-26T14:39:33+02:00</time>
      </trkpt>
      <trkpt lat="42.77071" lon="1.53736">
        <ele>1333</ele>
        <time>2022-08-26T14:39:51+02:00</time>
      </trkpt>
      <trkpt lat="42.77091" lon="1.53755">
        <ele>1331</ele>
        <time>2022-08-26T14:40:10+02:00</time>
      </trkpt>
      <trkpt lat="42.77107" lon="1.53778">
        <ele>1334</ele>
        <time>2022-08-26T14:40:28+02:00</time>
      </trkpt>
      <trkpt lat="42.77126" lon="1.53798">
        <ele>1330</ele>
        <time>2022-08-26T14:40:47+02:00</time>
      </trkpt>
      <trkpt lat="42.77131" lon="1.53829">
        <ele>1337</ele>
        <time>2022-08-26T14:41:11+02:00</time>
      </trkpt>
      <trkpt lat="42.77152" lon="1.53848">
        <ele>1327</ele>
        <time>2022-08-26T14:41:28+02:00</time>
      </trkpt>
      <trkpt lat="42.77162" lon="1.53877">
        <ele>1325</ele>
        <time>2022-08-26T14:41:48+02:00</time>
      </trkpt>
      <trkpt lat="42.77172" lon="1.53907">
        <ele>1318</ele>
        <time>2022-08-26T14:42:15+02:00</time>
      </trkpt>
      <trkpt lat="42.77181" lon="1.53936">
        <ele>1310</ele>
        <time>2022-08-26T14:42:32+02:00</time>
      </trkpt>
      <trkpt lat="42.77193" lon="1.53964">
        <ele>1306</ele>
        <time>2022-08-26T14:42:54+02:00</time>
      </trkpt>
      <trkpt lat="42.77205" lon="1.53991">
        <ele>1306</ele>
        <time>2022-08-26T14:43:14+02:00</time>
      </trkpt>
      <trkpt lat="42.77222" lon="1.54015">
        <ele>1309</ele>
        <time>2022-08-26T14:43:36+02:00</time>
      </trkpt>
      <trkpt lat="42.77205" lon="1.53992">
        <ele>1306</ele>
        <time>2022-08-26T14:44:59+02:00</time>
      </trkpt>
      <trkpt lat="42.77195" lon="1.53962">
        <ele>1307</ele>
        <time>2022-08-26T14:45:18+02:00</time>
      </trkpt>
      <trkpt lat="42.77182" lon="1.53932">
        <ele>1311</ele>
        <time>2022-08-26T14:45:39+02:00</time>
      </trkpt>
      <trkpt lat="42.77164" lon="1.53951">
        <ele>1306</ele>
        <time>2022-08-26T14:46:15+02:00</time>
      </trkpt>
      <trkpt lat="42.77167" lon="1.53982">
        <ele>1299</ele>
        <time>2022-08-26T14:46:36+02:00</time>
      </trkpt>
      <trkpt lat="42.77171" lon="1.54014">
        <ele>1296</ele>
        <time>2022-08-26T14:47:28+02:00</time>
      </trkpt>
      <trkpt lat="42.7718" lon="1.54044">
        <ele>1295</ele>
        <time>2022-08-26T14:47:46+02:00</time>
      </trkpt>
      <trkpt lat="42.77192" lon="1.5407">
        <ele>1293</ele>
        <time>2022-08-26T14:48:01+02:00</time>
      </trkpt>
      <trkpt lat="42.7721" lon="1.54089">
        <ele>1292</ele>
        <time>2022-08-26T14:48:36+02:00</time>
      </trkpt>
      <trkpt lat="42.77231" lon="1.54102">
        <ele>1289</ele>
        <time>2022-08-26T14:48:58+02:00</time>
      </trkpt>
      <trkpt lat="42.77252" lon="1.54117">
        <ele>1287</ele>
        <time>2022-08-26T14:49:23+02:00</time>
      </trkpt>
      <trkpt lat="42.77274" lon="1.54126">
        <ele>1284</ele>
        <time>2022-08-26T14:49:59+02:00</time>
      </trkpt>
      <trkpt lat="42.77289" lon="1.54141">
        <ele>1280</ele>
        <time>2022-08-26T14:50:20+02:00</time>
      </trkpt>
      <trkpt lat="42.77282" lon="1.54159">
        <ele>1277</ele>
        <time>2022-08-26T14:50:41+02:00</time>
      </trkpt>
      <trkpt lat="42.7719" lon="1.54175">
        <ele>1255</ele>
      </trkpt>
      <trkpt lat="42.77093" lon="1.54174">
        <ele>1240</ele>
      </trkpt>
      <trkpt lat="42.77067" lon="1.54205">
        <ele>1229</ele>
        <time>2022-08-26T14:51:10+02:00</time>
      </trkpt>
      <trkpt lat="42.77015" lon="1.5425">
        <ele>1216</ele>
      </trkpt>
      <trkpt lat="42.77001" lon="1.54306">
        <ele>1199</ele>
        <time>2022-08-26T14:51:29+02:00</time>
      </trkpt>
      <trkpt lat="42.77074" lon="1.54335">
        <ele>1191</ele>
        <time>2022-08-26T14:52:03+02:00</time>
      </trkpt>
      <trkpt lat="42.771" lon="1.54421">
        <ele>1169</ele>
      </trkpt>
      <trkpt lat="42.77091" lon="1.54458">
        <ele>1161</ele>
      </trkpt>
      <trkpt lat="42.77037" lon="1.54478">
        <ele>1145</ele>
      </trkpt>
      <trkpt lat="42.77046" lon="1.54506">
        <ele>1139</ele>
        <time>2022-08-26T14:52:27+02:00</time>
      </trkpt>
      <trkpt lat="42.77086" lon="1.54601">
        <ele>1135</ele>
      </trkpt>
      <trkpt lat="42.77111" lon="1.54741">
        <ele>1123</ele>
      </trkpt>
      <trkpt lat="42.77067" lon="1.54685">
        <ele>1116</ele>
        <time>2022-08-26T14:52:43+02:00</time>
      </trkpt>
    </trkseg>
  </trk>
</gpx>